createdAt,value
2022-12-11T00:00:11.686Z,15.85
2022-12-11T00:02:38.415Z,22.00
2022-12-11T00:05:05.589Z,22.35
2022-12-11T00:07:32.431Z,23.08
2022-12-11T00:09:59.350Z,23.13
2022-12-11T00:12:26.039Z,23.40
2022-12-11T00:14:53.680Z,23.27
2022-12-11T00:17:20.356Z,17.25
2022-12-11T00:19:47.056Z,22.67
2022-12-11T00:22:13.756Z,18.15
2022-12-11T00:24:40.524Z,17.27
2022-12-11T00:27:07.980Z,21.70
2022-12-11T00:29:34.708Z,22.23
2022-12-11T00:32:01.628Z,17.17
2022-12-11T00:34:28.474Z,23.67
2022-12-11T00:36:55.255Z,24.25
2022-12-11T00:39:21.968Z,21.55
2022-12-11T00:41:48.658Z,21.63
2022-12-11T00:44:15.360Z,23.13
2022-12-11T00:46:42.089Z,14.68
2022-12-11T00:49:08.787Z,16.15
2022-12-11T00:51:35.495Z,20.30
2022-12-11T00:54:03.018Z,16.80
2022-12-11T00:56:29.971Z,19.52
2022-12-11T00:58:56.715Z,23.13
2022-12-11T01:01:25.223Z,24.52
2022-12-11T01:03:52.711Z,23.73
2022-12-11T01:06:22.546Z,21.20
2022-12-11T01:09:10.012Z,22.27
2022-12-11T01:11:37.145Z,23.10
2022-12-11T01:14:04.283Z,24.20
2022-12-11T01:16:31.077Z,23.60
2022-12-11T01:18:58.128Z,23.67
2022-12-11T01:21:24.925Z,23.30
2022-12-11T01:23:52.467Z,25.42
2022-12-11T01:26:19.206Z,21.92
2022-12-11T01:28:49.133Z,22.77
2022-12-11T01:31:17.512Z,22.38
2022-12-11T01:33:44.315Z,23.15
2022-12-11T01:36:14.045Z,16.10
2022-12-11T01:38:41.290Z,23.15
2022-12-11T01:43:34.701Z,20.35
2022-12-11T01:46:01.597Z,16.45
2022-12-11T01:48:31.434Z,22.55
2022-12-11T01:51:04.841Z,25.00
2022-12-11T01:53:35.218Z,23.52
2022-12-11T01:56:03.005Z,22.83
2022-12-11T01:58:34.267Z,22.40
2022-12-11T02:01:02.532Z,20.95
2022-12-11T02:03:29.363Z,21.33
2022-12-11T02:06:00.624Z,15.55
2022-12-11T02:08:27.488Z,20.17
2022-12-11T02:11:12.897Z,20.15
2022-12-11T02:14:00.231Z,20.10
2022-12-11T02:16:36.164Z,18.55
2022-12-11T02:19:15.136Z,20.00
2022-12-11T02:21:48.500Z,19.55
2022-12-11T02:24:39.898Z,19.60
2022-12-11T02:27:21.647Z,18.02
2022-12-11T02:29:54.886Z,17.35
2022-12-11T02:32:27.143Z,17.65
2022-12-11T02:35:11.826Z,15.95
2022-12-11T02:37:44.525Z,12.77
2022-12-11T02:40:15.099Z,16.42
2022-12-11T02:42:43.984Z,13.07
2022-12-11T02:45:12.138Z,10.02
2022-12-11T02:47:39.768Z,12.13
2022-12-11T02:50:12.459Z,11.27
2022-12-11T02:52:41.429Z,13.32
2022-12-11T02:55:10.797Z,14.32
2022-12-11T02:58:06.787Z,13.25
2022-12-11T03:00:34.455Z,13.40
2022-12-11T03:03:02.167Z,13.40
2022-12-11T03:05:29.761Z,13.82
2022-12-11T03:07:56.833Z,13.15
2022-12-11T03:10:24.029Z,14.15
2022-12-11T03:12:55.401Z,14.40
2022-12-11T03:15:30.176Z,12.80
2022-12-11T03:18:13.646Z,13.98
2022-12-11T03:21:05.635Z,13.93
2022-12-11T03:23:48.197Z,12.88
2022-12-11T03:26:17.540Z,14.10
2022-12-11T03:28:47.064Z,13.05
2022-12-11T03:31:27.327Z,14.82
2022-12-11T03:33:58.492Z,13.75
2022-12-11T03:36:31.742Z,12.13
2022-12-11T03:39:01.837Z,13.90
2022-12-11T03:41:31.093Z,12.88
2022-12-11T03:43:59.000Z,14.05
2022-12-11T03:46:34.559Z,13.80
2022-12-11T03:49:05.811Z,14.23
2022-12-11T03:51:34.181Z,12.80
2022-12-11T03:54:01.311Z,14.93
2022-12-11T03:56:30.252Z,16.08
2022-12-11T03:58:56.991Z,14.52
2022-12-11T04:01:23.811Z,12.65
2022-12-11T04:03:50.692Z,11.25
2022-12-11T04:06:17.418Z,12.80
2022-12-11T04:08:44.314Z,12.55
2022-12-11T04:11:29.842Z,11.55
2022-12-11T04:14:15.205Z,12.70
2022-12-11T04:16:41.905Z,14.50
2022-12-11T04:19:28.381Z,14.60
2022-12-11T04:22:13.741Z,14.18
2022-12-11T04:24:40.649Z,15.68
2022-12-11T04:27:07.656Z,15.07
2022-12-11T04:29:34.356Z,15.27
2022-12-11T04:32:01.097Z,9.80
2022-12-11T04:34:27.801Z,16.08
2022-12-11T04:36:54.469Z,12.95
2022-12-11T04:39:21.160Z,12.00
2022-12-11T04:41:47.831Z,16.73
2022-12-11T04:44:14.495Z,18.20
2022-12-11T04:46:41.231Z,12.57
2022-12-11T04:49:07.944Z,16.10
2022-12-11T04:51:34.623Z,18.17
2022-12-11T04:54:01.321Z,12.20
2022-12-11T04:56:28.039Z,17.08
2022-12-11T04:58:54.747Z,15.55
2022-12-11T05:01:23.279Z,15.70
2022-12-11T05:03:50.333Z,17.20
2022-12-11T05:06:17.448Z,16.55
2022-12-11T05:08:45.358Z,17.20
2022-12-11T05:11:14.895Z,15.32
2022-12-11T05:13:41.973Z,14.48
2022-12-11T05:16:10.781Z,14.85
2022-12-11T05:18:37.511Z,14.48
2022-12-11T05:21:10.304Z,16.13
2022-12-11T05:23:37.467Z,16.80
2022-12-11T05:26:12.456Z,16.73
2022-12-11T05:28:40.068Z,14.63
2022-12-11T05:31:11.816Z,15.00
2022-12-11T05:33:38.802Z,14.73
2022-12-11T05:36:07.481Z,14.05
2022-12-11T05:38:34.733Z,13.93
2022-12-11T05:43:33.331Z,14.13
2022-12-11T05:46:08.041Z,14.73
2022-12-11T05:48:35.526Z,14.85
2022-12-11T05:51:03.911Z,13.55
2022-12-11T05:53:30.982Z,14.93
2022-12-11T05:56:07.224Z,11.50
2022-12-11T05:58:34.825Z,13.82
2022-12-11T06:01:02.529Z,13.38
2022-12-11T06:03:29.190Z,12.77
2022-12-11T06:05:55.873Z,12.40
2022-12-11T06:08:22.756Z,11.15
2022-12-11T06:10:50.572Z,13.77
2022-12-11T06:13:18.323Z,14.20
2022-12-11T06:15:45.306Z,13.10
2022-12-11T06:18:12.028Z,13.82
2022-12-11T06:20:39.599Z,9.90
2022-12-11T06:23:06.371Z,13.07
2022-12-11T06:25:33.336Z,15.07
2022-12-11T06:28:00.103Z,13.98
2022-12-11T06:30:38.588Z,12.90
2022-12-11T06:33:06.563Z,13.68
2022-12-11T06:35:38.594Z,14.02
2022-12-11T06:38:06.901Z,14.25
2022-12-11T06:40:33.628Z,9.98
2022-12-11T06:43:00.292Z,13.52
2022-12-11T06:45:27.035Z,9.65
2022-12-11T06:47:53.806Z,11.90
2022-12-11T06:50:20.468Z,11.05
2022-12-11T06:52:47.154Z,13.65
2022-12-11T06:55:14.133Z,9.93
2022-12-11T06:57:41.068Z,10.82
2022-12-11T07:00:08.435Z,11.30
2022-12-11T07:02:35.347Z,11.07
2022-12-11T07:05:02.563Z,10.73
2022-12-11T07:07:29.210Z,11.25
2022-12-11T07:09:55.888Z,12.00
2022-12-11T07:12:22.590Z,11.57
2022-12-11T07:14:49.252Z,11.60
2022-12-11T07:17:16.310Z,9.77
2022-12-11T07:19:43.094Z,10.65
2022-12-11T07:22:09.793Z,9.18
2022-12-11T07:24:36.464Z,10.30
2022-12-11T07:27:04.411Z,9.63
2022-12-11T07:29:31.100Z,10.65
2022-12-11T07:31:57.917Z,10.32
2022-12-11T07:34:24.730Z,10.23
2022-12-11T07:36:51.460Z,7.22
2022-12-11T07:39:18.135Z,9.77
2022-12-11T07:41:45.879Z,9.57
2022-12-11T07:44:13.050Z,8.77
2022-12-11T07:46:40.257Z,9.55
2022-12-11T07:49:07.284Z,9.48
2022-12-11T07:51:36.325Z,9.15
2022-12-11T07:54:10.630Z,9.07
2022-12-11T07:56:37.338Z,9.27
2022-12-11T07:59:05.248Z,9.38
2022-12-11T08:01:35.608Z,10.27
2022-12-11T08:04:04.157Z,8.20
2022-12-11T08:06:34.464Z,9.07
2022-12-11T08:09:02.676Z,8.23
2022-12-11T08:11:29.829Z,8.57
2022-12-11T08:13:59.109Z,8.38
2022-12-11T08:16:26.850Z,8.98
2022-12-11T08:18:53.755Z,9.13
2022-12-11T08:21:25.891Z,9.43
2022-12-11T08:23:54.141Z,9.25
2022-12-11T08:26:26.215Z,8.70
2022-12-11T08:28:53.436Z,10.23
2022-12-11T08:31:20.970Z,8.95
2022-12-11T08:33:48.482Z,8.65
2022-12-11T08:36:18.843Z,8.52
2022-12-11T08:38:46.667Z,8.40
2022-12-11T08:41:19.473Z,8.65
2022-12-11T08:43:46.754Z,9.20
2022-12-11T08:48:42.306Z,9.27
2022-12-11T08:51:12.788Z,9.00
2022-12-11T08:53:40.080Z,8.02
2022-12-11T08:58:34.885Z,6.72
2022-12-11T09:01:06.823Z,7.88
2022-12-11T09:03:33.818Z,7.10
2022-12-11T09:06:03.308Z,7.32
2022-12-11T09:08:30.067Z,7.03
2022-12-11T09:10:56.809Z,6.70
2022-12-11T09:13:23.514Z,7.07
2022-12-11T09:19:19.856Z,7.63
2022-12-11T09:21:46.652Z,7.68
2022-12-11T09:24:13.895Z,8.02
2022-12-11T09:29:07.820Z,6.82
2022-12-11T09:31:36.851Z,7.07
2022-12-11T09:34:11.372Z,6.75
2022-12-11T09:36:44.180Z,6.78
2022-12-11T09:39:12.975Z,6.00
2022-12-11T09:42:15.661Z,6.15
2022-12-11T09:44:46.285Z,6.47
2022-12-11T09:47:34.678Z,5.50
2022-12-11T09:50:24.492Z,6.38
2022-12-11T09:53:17.416Z,5.95
2022-12-11T09:55:53.018Z,6.53
2022-12-11T09:58:26.519Z,6.07
2022-12-11T10:01:27.369Z,5.10
2022-12-11T10:04:15.886Z,6.60
2022-12-11T10:09:51.716Z,8.02
2022-12-11T10:12:44.540Z,9.07
2022-12-11T10:15:23.988Z,7.75
2022-12-11T10:17:53.831Z,5.93
2022-12-11T10:20:24.874Z,7.88
2022-12-11T10:22:53.517Z,6.05
2022-12-11T10:25:29.285Z,5.35
2022-12-11T10:27:56.295Z,4.47
2022-12-11T10:30:34.708Z,5.00
2022-12-11T10:33:21.772Z,4.80
2022-12-11T10:35:56.999Z,4.57
2022-12-11T10:38:43.277Z,4.30
2022-12-11T10:41:12.809Z,5.60
2022-12-11T10:43:45.991Z,4.72
2022-12-11T10:46:23.122Z,5.70
2022-12-11T10:48:55.449Z,4.72
2022-12-11T10:51:40.408Z,4.90
2022-12-11T10:54:17.708Z,4.47
2022-12-11T10:56:48.170Z,4.72
2022-12-11T10:59:46.267Z,4.22
2022-12-11T11:02:34.320Z,4.03
2022-12-11T11:05:26.911Z,3.85
2022-12-11T11:08:09.446Z,3.17
2022-12-11T11:10:36.316Z,3.88
2022-12-11T11:13:03.368Z,3.63
2022-12-11T11:15:30.900Z,4.13
2022-12-11T11:18:16.744Z,3.83
2022-12-11T11:20:47.885Z,3.67
2022-12-11T11:23:16.465Z,3.72
2022-12-11T11:25:50.379Z,4.90
2022-12-11T11:28:25.975Z,5.10
2022-12-11T11:31:08.551Z,6.80
2022-12-11T11:33:37.842Z,6.00
2022-12-11T11:36:07.076Z,5.03
2022-12-11T11:38:44.859Z,5.32
2022-12-11T11:41:29.124Z,3.63
2022-12-11T11:44:02.141Z,5.00
2022-12-11T11:46:43.155Z,4.80
2022-12-11T11:49:12.954Z,4.30
2022-12-11T11:51:55.610Z,4.30
2022-12-11T11:54:32.068Z,3.92
2022-12-11T11:57:01.906Z,4.00
2022-12-11T11:59:39.587Z,4.03
2022-12-11T12:02:15.133Z,4.75
2022-12-11T12:04:42.841Z,5.22
2022-12-11T12:07:39.512Z,5.07
2022-12-11T12:10:26.451Z,4.70
2022-12-11T12:12:53.123Z,3.83
2022-12-11T12:15:31.466Z,4.45
2022-12-11T12:18:07.416Z,4.88
2022-12-11T12:20:42.054Z,4.65
2022-12-11T12:23:25.594Z,4.82
2022-12-11T12:26:06.261Z,4.45
2022-12-11T12:28:45.468Z,4.35
2022-12-11T12:31:29.555Z,4.30
2022-12-11T12:34:08.429Z,4.72
2022-12-11T12:36:53.365Z,4.03
2022-12-11T12:40:07.197Z,4.45
2022-12-11T12:42:46.131Z,4.50
2022-12-11T12:45:13.176Z,4.55
2022-12-11T12:47:43.154Z,3.90
2022-12-11T12:50:18.528Z,4.60
2022-12-11T12:52:45.767Z,4.63
2022-12-11T12:55:28.838Z,4.88
2022-12-11T12:58:00.381Z,5.65
2022-12-11T13:00:36.139Z,5.88
2022-12-11T13:03:14.276Z,5.68
2022-12-11T13:05:56.690Z,6.05
2022-12-11T13:08:29.401Z,6.03
2022-12-11T13:11:09.323Z,6.00
2022-12-11T13:13:39.246Z,6.38
2022-12-11T13:16:16.427Z,6.70
2022-12-11T13:18:48.143Z,5.85
2022-12-11T13:21:35.180Z,5.53
2022-12-11T13:24:26.376Z,5.32
2022-12-11T13:26:53.212Z,5.53
2022-12-11T13:29:30.461Z,5.85
2022-12-11T13:32:05.148Z,6.57
2022-12-11T13:34:34.914Z,7.10
2022-12-11T13:37:03.799Z,7.30
2022-12-11T13:39:34.921Z,8.02
2022-12-11T13:42:05.292Z,8.32
2022-12-11T13:44:40.783Z,9.25
2022-12-11T13:47:13.875Z,8.32
2022-12-11T13:49:44.107Z,8.40
2022-12-11T13:52:25.744Z,7.38
2022-12-11T13:54:54.269Z,7.60
2022-12-11T13:57:23.414Z,7.05
2022-12-11T13:59:56.243Z,7.40
2022-12-11T14:02:29.995Z,10.80
2022-12-11T14:05:00.816Z,9.80
2022-12-11T14:07:31.267Z,8.00
2022-12-11T14:10:08.013Z,8.68
2022-12-11T14:12:36.878Z,7.47
2022-12-11T14:15:04.780Z,9.93
2022-12-11T14:17:34.640Z,7.75
2022-12-11T14:20:07.152Z,7.88
2022-12-11T14:22:34.032Z,7.38
2022-12-11T14:25:03.649Z,4.95
2022-12-11T14:27:30.690Z,6.72
2022-12-11T14:29:57.435Z,6.50
2022-12-11T14:32:33.526Z,6.65
2022-12-11T14:35:02.144Z,6.75
2022-12-11T14:37:29.269Z,6.65
2022-12-11T14:40:07.223Z,6.82
2022-12-11T14:42:49.103Z,5.93
2022-12-11T14:45:30.871Z,6.85
2022-12-11T14:47:59.490Z,8.50
2022-12-11T14:50:43.753Z,7.43
2022-12-11T14:53:16.746Z,6.82
2022-12-11T14:55:43.715Z,7.15
2022-12-11T14:58:16.348Z,7.20
2022-12-11T15:00:43.059Z,7.57
2022-12-11T15:03:12.816Z,7.00
2022-12-11T15:05:53.347Z,8.02
2022-12-11T15:08:25.688Z,7.18
2022-12-11T15:10:55.272Z,7.45
2022-12-11T15:13:25.236Z,7.22
2022-12-11T15:18:51.496Z,6.93
2022-12-11T15:21:19.671Z,8.10
2022-12-11T15:23:55.462Z,7.53
2022-12-11T15:26:59.755Z,7.32
2022-12-11T15:29:34.584Z,8.18
2022-12-11T15:32:18.983Z,7.80
2022-12-11T15:34:50.831Z,7.38
2022-12-11T15:37:40.003Z,7.57
2022-12-11T15:40:07.593Z,7.57
2022-12-11T15:42:37.134Z,8.45
2022-12-11T15:45:07.482Z,6.90
2022-12-11T15:47:34.375Z,6.93
2022-12-11T15:50:08.154Z,8.20
2022-12-11T15:52:34.899Z,7.85
2022-12-11T15:55:01.599Z,8.65
2022-12-11T15:57:28.383Z,7.25
2022-12-11T16:02:24.229Z,8.32
2022-12-11T16:04:51.116Z,8.32
2022-12-11T16:07:26.193Z,6.63
2022-12-11T16:09:53.557Z,8.73
2022-12-11T16:14:47.351Z,8.95
2022-12-11T16:17:15.110Z,9.10
2022-12-11T16:19:43.068Z,8.43
2022-12-11T16:22:12.114Z,8.48
2022-12-11T16:24:39.619Z,9.27
2022-12-11T16:27:07.817Z,8.52
2022-12-11T16:29:36.418Z,9.30
2022-12-11T16:32:03.993Z,8.30
2022-12-11T16:34:30.678Z,7.70
2022-12-11T16:36:58.347Z,9.02
2022-12-11T16:39:25.543Z,8.65
2022-12-11T16:41:52.241Z,8.65
2022-12-11T16:44:24.250Z,10.00
2022-12-11T16:46:52.378Z,11.65
2022-12-11T16:49:19.600Z,16.80
2022-12-11T16:54:26.151Z,13.52
2022-12-11T16:56:52.828Z,13.82
2022-12-11T16:59:19.537Z,8.27
2022-12-11T17:01:46.255Z,9.60
2022-12-11T17:04:13.029Z,10.15
2022-12-11T17:06:39.707Z,12.48
2022-12-11T17:09:07.044Z,13.77
2022-12-11T17:14:00.712Z,14.35
2022-12-11T17:16:33.847Z,17.80
2022-12-11T17:19:01.785Z,15.05
2022-12-11T17:21:28.473Z,15.02
2022-12-11T17:23:55.462Z,12.50
2022-12-11T17:26:22.264Z,11.70
2022-12-11T17:28:49.161Z,11.57
2022-12-11T17:31:18.919Z,13.82
2022-12-11T17:33:46.820Z,12.95
2022-12-11T17:36:17.188Z,13.13
2022-12-11T17:38:44.551Z,12.88
2022-12-11T17:43:49.341Z,11.35
2022-12-11T17:46:16.369Z,12.70
2022-12-11T17:48:43.124Z,12.55
2022-12-11T17:51:12.632Z,13.85
2022-12-11T17:53:40.129Z,14.15
2022-12-11T17:56:08.198Z,13.15
2022-12-11T17:58:35.193Z,17.27
2022-12-11T18:01:08.007Z,21.38
2022-12-11T18:03:35.435Z,26.73
2022-12-11T18:06:13.002Z,28.58
2022-12-11T18:08:40.426Z,24.30
2022-12-11T18:11:09.121Z,17.15
2022-12-11T18:13:36.204Z,14.38
2022-12-11T18:16:17.771Z,15.65
2022-12-11T18:18:46.219Z,13.15
2022-12-11T18:21:14.795Z,14.20
2022-12-11T18:23:41.662Z,13.13
2022-12-11T18:26:08.817Z,12.35
2022-12-11T18:28:35.520Z,12.60
2022-12-11T18:31:03.437Z,13.07
2022-12-11T18:33:32.116Z,11.65
2022-12-11T18:35:58.810Z,10.75
2022-12-11T18:38:25.552Z,12.32
2022-12-11T18:40:52.234Z,13.88
2022-12-11T18:43:18.969Z,10.70
2022-12-11T18:45:45.928Z,11.65
2022-12-11T18:48:13.586Z,13.52
2022-12-11T18:50:47.963Z,12.57
2022-12-11T18:53:15.427Z,11.38
2022-12-11T18:55:46.949Z,12.82
2022-12-11T18:58:17.325Z,13.00
2022-12-11T19:00:46.027Z,12.43
2022-12-11T19:03:14.088Z,12.52
2022-12-11T19:05:43.659Z,11.73
2022-12-11T19:08:14.129Z,11.85
2022-12-11T19:10:43.037Z,14.40
2022-12-11T19:13:10.024Z,11.15
2022-12-11T19:15:44.049Z,8.98
2022-12-11T19:18:11.066Z,8.80
2022-12-11T19:20:55.653Z,9.60
2022-12-11T19:23:29.974Z,9.98
2022-12-11T19:25:56.813Z,9.10
2022-12-11T19:28:23.957Z,7.63
2022-12-11T19:30:50.790Z,10.88
2022-12-11T19:33:17.583Z,10.55
2022-12-11T19:35:44.547Z,11.23
2022-12-11T19:38:12.765Z,12.48
2022-12-11T19:40:41.448Z,13.07
2022-12-11T19:43:08.435Z,10.38
2022-12-11T19:45:35.952Z,10.45
2022-12-11T19:48:03.128Z,9.02
2022-12-11T19:50:30.016Z,9.20
2022-12-11T19:52:56.698Z,10.98
2022-12-11T19:55:23.372Z,8.57
2022-12-11T19:57:50.143Z,7.80
2022-12-11T20:00:17.086Z,8.73
2022-12-11T20:02:43.988Z,9.90
2022-12-11T20:05:11.277Z,8.60
2022-12-11T20:07:38.708Z,8.65
2022-12-11T20:10:06.427Z,7.63
2022-12-11T20:12:33.938Z,7.93
2022-12-11T20:15:00.728Z,7.25
2022-12-11T20:17:27.436Z,8.88
2022-12-11T20:19:54.112Z,9.43
2022-12-11T20:22:20.853Z,9.38
2022-12-11T20:24:47.541Z,8.65
2022-12-11T20:27:15.089Z,7.65
2022-12-11T20:29:41.875Z,8.27
2022-12-11T20:32:11.216Z,7.82
2022-12-11T20:34:38.360Z,8.27
2022-12-11T20:37:05.065Z,7.20
2022-12-11T20:39:32.015Z,8.38
2022-12-11T20:41:59.498Z,6.55
2022-12-11T20:44:26.308Z,7.20
2022-12-11T20:46:53.854Z,6.85
2022-12-11T20:49:20.604Z,7.55
2022-12-11T20:51:47.330Z,6.15
2022-12-11T20:54:14.123Z,8.20
2022-12-11T20:56:40.850Z,19.42
2022-12-11T20:59:07.572Z,11.60
2022-12-11T21:01:34.954Z,10.82
2022-12-11T21:04:01.748Z,10.82
2022-12-11T21:06:31.889Z,11.00
2022-12-11T21:09:00.648Z,10.73
2022-12-11T21:11:27.665Z,10.50
2022-12-11T21:13:54.673Z,8.18
2022-12-11T21:16:46.381Z,7.68
2022-12-11T21:19:17.033Z,7.53
2022-12-11T21:21:45.138Z,6.63
2022-12-11T21:24:23.461Z,6.10
2022-12-11T21:26:50.252Z,5.05
2022-12-11T21:29:17.161Z,5.15
2022-12-11T21:31:44.500Z,6.53
2022-12-11T21:34:11.281Z,5.35
2022-12-11T21:36:38.112Z,4.90
2022-12-11T21:39:05.121Z,4.85
2022-12-11T21:41:32.060Z,4.28
2022-12-11T21:46:45.568Z,4.20
2022-12-11T21:49:12.305Z,3.63
2022-12-11T21:51:46.756Z,3.35
2022-12-11T21:54:16.654Z,3.70
2022-12-11T21:56:44.182Z,4.45
2022-12-11T21:59:10.904Z,4.65
2022-12-11T22:01:41.890Z,4.88
2022-12-11T22:04:10.616Z,4.75
2022-12-11T22:06:37.413Z,4.85
2022-12-11T22:09:05.678Z,5.07
2022-12-11T22:11:33.455Z,5.20
2022-12-11T22:14:00.955Z,4.85
2022-12-11T22:16:28.496Z,5.35
2022-12-11T22:18:55.263Z,3.97
2022-12-11T22:21:21.972Z,4.25
2022-12-11T22:23:48.708Z,3.92
2022-12-11T22:26:18.756Z,3.28
2022-12-11T22:28:45.451Z,3.70
2022-12-11T22:31:17.880Z,3.70
2022-12-11T22:33:44.759Z,3.78
2022-12-11T22:36:12.067Z,3.03
2022-12-11T22:38:39.499Z,3.65
2022-12-11T22:41:11.494Z,4.15
2022-12-11T22:43:38.211Z,3.97
2022-12-11T22:46:05.143Z,3.60
2022-12-11T22:48:31.889Z,4.00
2022-12-11T22:50:58.694Z,3.67
2022-12-11T22:55:53.359Z,3.97
2022-12-11T22:58:21.914Z,3.55
2022-12-11T23:00:49.043Z,4.18
2022-12-11T23:03:16.030Z,4.20
2022-12-11T23:05:43.400Z,6.07
2022-12-11T23:08:10.200Z,5.15
2022-12-11T23:10:40.694Z,5.70
2022-12-11T23:13:07.774Z,3.88
2022-12-11T23:15:35.252Z,3.95
2022-12-11T23:18:02.003Z,4.68
2022-12-11T23:20:29.102Z,4.93
2022-12-11T23:22:55.812Z,4.82
2022-12-11T23:25:22.672Z,4.53
2022-12-11T23:27:49.718Z,2.67
2022-12-11T23:30:16.419Z,2.50
2022-12-11T23:32:43.133Z,2.70
2022-12-11T23:35:10.358Z,5.25
2022-12-11T23:37:37.265Z,6.20
2022-12-11T23:40:04.683Z,6.15
2022-12-11T23:42:31.387Z,5.90
2022-12-11T23:44:58.069Z,5.15
2022-12-11T23:47:24.811Z,4.30
2022-12-11T23:49:51.520Z,4.65
2022-12-11T23:52:19.273Z,3.63
2022-12-11T23:54:45.967Z,4.00
2022-12-11T23:57:12.631Z,3.67
2022-12-11T23:59:39.346Z,2.45
